Hlavní strana
METAR-TAF:

METAR-TAF

Letiště :

Barrancabermeja, Kolumbie

zeměpisná šířka: 07-01N, zeměpisná délka: 073-48W, výška: 126 m

Aktuální stav počasí

Zpráva byla vytvořena před 4 hodinami a 44 minutami, v 19:00 UTC
Jihozápadní vítr 6 kt
Teplota 34°C
Vlhkost vzduchu 60%
Tlak 1009 hPa
Viditelnost 10 km a více
Polojasno ve výšce 1500 ft

METAR: SKEJ 071900Z 23006KT 9999 SCT015 34/25 A2980

Čas: 18:44 (23:44 UTC)


TAF: chybějící

Stav a předpovědi počasí z více než 4 000 letišť (zprávy METAR a TAF).

Červené a žluté tečky na mapě představují dostupné meteorologické stanice.

Když kurzor umístíte na tečku, zobrazí se název stanice.

Pak kliknutím zobrazíte stav a předpověď počasí.

Chcete-li změnit mapu, kliknutím na zelené tlačítko se znaménkem +mapu přiblížíte, kliknutím na zelené tlačítko se znaménkem – mapu oddálíte a kliknutím na zelené šipky přejdete na sousední mapy.


METAR-TAF: